sensor_id;sensor_type;location;lat;lon;timestamp;P1;durP1;ratioP1;P2;durP2;ratioP2
11548;SDS011;61444;59.472;18.306;2022-10-16T00:00:38;34.37;;;19.27;;
11548;SDS011;61444;59.472;18.306;2022-10-16T00:02:49;34.10;;;18.00;;
11548;SDS011;61444;59.472;18.306;2022-10-16T00:04:58;30.60;;;17.60;;
11548;SDS011;61444;59.472;18.306;2022-10-16T00:07:07;29.17;;;16.43;;
11548;SDS011;61444;59.472;18.306;2022-10-16T00:09:16;25.60;;;16.03;;
11548;SDS011;61444;59.472;18.306;2022-10-16T00:11:25;29.40;;;16.13;;
11548;SDS011;61444;59.472;18.306;2022-10-16T00:13:35;24.37;;;14.83;;
11548;SDS011;61444;59.472;18.306;2022-10-16T00:15:44;24.67;;;15.00;;
11548;SDS011;61444;59.472;18.306;2022-10-16T00:17:54;22.20;;;14.87;;
11548;SDS011;61444;59.472;18.306;2022-10-16T00:20:03;23.57;;;15.20;;
11548;SDS011;61444;59.472;18.306;2022-10-16T00:22:12;25.00;;;13.60;;
11548;SDS011;61444;59.472;18.306;2022-10-16T00:24:21;25.63;;;14.80;;
11548;SDS011;61444;59.472;18.306;2022-10-16T00:26:33;22.73;;;13.87;;
11548;SDS011;61444;59.472;18.306;2022-10-16T00:28:44;23.70;;;14.30;;
11548;SDS011;61444;59.472;18.306;2022-10-16T00:30:54;20.97;;;13.57;;
11548;SDS011;61444;59.472;18.306;2022-10-16T00:33:05;21.87;;;13.37;;
11548;SDS011;61444;59.472;18.306;2022-10-16T00:35:14;22.70;;;13.57;;
11548;SDS011;61444;59.472;18.306;2022-10-16T00:37:24;21.10;;;13.63;;
11548;SDS011;61444;59.472;18.306;2022-10-16T00:39:32;22.70;;;14.03;;
11548;SDS011;61444;59.472;18.306;2022-10-16T00:41:41;22.33;;;13.83;;
11548;SDS011;61444;59.472;18.306;2022-10-16T00:43:51;20.40;;;13.57;;
11548;SDS011;61444;59.472;18.306;2022-10-16T00:46:01;24.43;;;14.20;;
11548;SDS011;61444;59.472;18.306;2022-10-16T00:48:12;21.10;;;13.00;;
11548;SDS011;61444;59.472;18.306;2022-10-16T00:50:24;18.30;;;12.93;;
11548;SDS011;61444;59.472;18.306;2022-10-16T00:52:35;18.07;;;12.47;;
11548;SDS011;61444;59.472;18.306;2022-10-16T00:54:46;19.73;;;12.20;;
11548;SDS011;61444;59.472;18.306;2022-10-16T00:56:56;18.50;;;11.80;;
11548;SDS011;61444;59.472;18.306;2022-10-16T00:59:07;18.63;;;12.10;;
11548;SDS011;61444;59.472;18.306;2022-10-16T01:01:19;17.43;;;11.17;;
11548;SDS011;61444;59.472;18.306;2022-10-16T01:03:31;17.60;;;11.60;;
11548;SDS011;61444;59.472;18.306;2022-10-16T01:05:42;16.87;;;10.83;;
11548;SDS011;61444;59.472;18.306;2022-10-16T01:07:53;16.57;;;11.37;;
11548;SDS011;61444;59.472;18.306;2022-10-16T01:10:10;17.13;;;11.43;;
11548;SDS011;61444;59.472;18.306;2022-10-16T01:12:26;15.03;;;10.43;;
11548;SDS011;61444;59.472;18.306;2022-10-16T01:14:43;17.23;;;10.60;;
11548;SDS011;61444;59.472;18.306;2022-10-16T01:16:55;16.30;;;10.57;;
11548;SDS011;61444;59.472;18.306;2022-10-16T01:19:08;14.63;;;10.60;;
11548;SDS011;61444;59.472;18.306;2022-10-16T01:21:19;15.20;;;10.33;;
11548;SDS011;61444;59.472;18.306;2022-10-16T01:23:35;15.30;;;10.43;;
11548;SDS011;61444;59.472;18.306;2022-10-16T01:28:13;13.27;;;9.50;;
11548;SDS011;61444;59.472;18.306;2022-10-16T01:30:24;15.13;;;10.50;;
11548;SDS011;61444;59.472;18.306;2022-10-16T01:32:36;12.97;;;9.73;;
11548;SDS011;61444;59.472;18.306;2022-10-16T01:34:48;11.57;;;9.10;;
11548;SDS011;61444;59.472;18.306;2022-10-16T01:37:00;13.30;;;10.27;;
11548;SDS011;61444;59.472;18.306;2022-10-16T01:39:11;14.03;;;9.73;;
11548;SDS011;61444;59.472;18.306;2022-10-16T01:41:21;12.70;;;9.53;;
11548;SDS011;61444;59.472;18.306;2022-10-16T01:43:33;15.67;;;10.23;;
11548;SDS011;61444;59.472;18.306;2022-10-16T01:45:44;16.67;;;9.77;;
11548;SDS011;61444;59.472;18.306;2022-10-16T01:47:54;15.33;;;9.87;;
11548;SDS011;61444;59.472;18.306;2022-10-16T01:50:03;12.07;;;9.40;;
11548;SDS011;61444;59.472;18.306;2022-10-16T01:52:14;14.10;;;9.30;;
11548;SDS011;61444;59.472;18.306;2022-10-16T01:54:23;13.87;;;9.67;;
11548;SDS011;61444;59.472;18.306;2022-10-16T01:56:35;14.00;;;9.77;;
11548;SDS011;61444;59.472;18.306;2022-10-16T01:58:48;12.27;;;9.60;;
11548;SDS011;61444;59.472;18.306;2022-10-16T02:00:58;15.20;;;10.07;;
11548;SDS011;61444;59.472;18.306;2022-10-16T02:03:08;13.80;;;9.77;;
11548;SDS011;61444;59.472;18.306;2022-10-16T02:05:19;15.07;;;10.53;;
11548;SDS011;61444;59.472;18.306;2022-10-16T02:07:29;13.60;;;9.70;;
11548;SDS011;61444;59.472;18.306;2022-10-16T02:09:38;16.53;;;10.10;;
11548;SDS011;61444;59.472;18.306;2022-10-16T02:11:47;13.27;;;9.53;;
11548;SDS011;61444;59.472;18.306;2022-10-16T02:14:01;15.20;;;9.90;;
11548;SDS011;61444;59.472;18.306;2022-10-16T02:16:11;15.57;;;10.43;;
11548;SDS011;61444;59.472;18.306;2022-10-16T02:18:21;15.00;;;10.30;;
11548;SDS011;61444;59.472;18.306;2022-10-16T02:20:34;12.83;;;9.60;;
11548;SDS011;61444;59.472;18.306;2022-10-16T02:22:45;14.13;;;10.20;;
11548;SDS011;61444;59.472;18.306;2022-10-16T02:24:56;13.63;;;9.63;;
11548;SDS011;61444;59.472;18.306;2022-10-16T02:27:08;15.97;;;10.33;;
11548;SDS011;61444;59.472;18.306;2022-10-16T02:29:21;13.70;;;9.83;;
11548;SDS011;61444;59.472;18.306;2022-10-16T02:31:32;14.23;;;10.10;;
11548;SDS011;61444;59.472;18.306;2022-10-16T02:33:43;15.90;;;10.57;;
11548;SDS011;61444;59.472;18.306;2022-10-16T02:35:53;18.30;;;11.00;;
11548;SDS011;61444;59.472;18.306;2022-10-16T02:38:03;15.13;;;11.13;;
11548;SDS011;61444;59.472;18.306;2022-10-16T02:40:13;13.97;;;10.13;;
11548;SDS011;61444;59.472;18.306;2022-10-16T02:42:28;14.70;;;10.13;;
11548;SDS011;61444;59.472;18.306;2022-10-16T02:44:39;14.67;;;10.17;;
11548;SDS011;61444;59.472;18.306;2022-10-16T02:46:49;16.33;;;10.20;;
11548;SDS011;61444;59.472;18.306;2022-10-16T02:48:58;12.83;;;10.17;;
11548;SDS011;61444;59.472;18.306;2022-10-16T02:51:07;14.73;;;10.70;;
11548;SDS011;61444;59.472;18.306;2022-10-16T02:53:16;13.97;;;10.07;;
11548;SDS011;61444;59.472;18.306;2022-10-16T02:55:25;14.33;;;10.37;;
11548;SDS011;61444;59.472;18.306;2022-10-16T02:57:34;14.40;;;10.63;;
11548;SDS011;61444;59.472;18.306;2022-10-16T02:59:48;14.07;;;10.27;;
11548;SDS011;61444;59.472;18.306;2022-10-16T03:01:57;13.57;;;9.97;;
11548;SDS011;61444;59.472;18.306;2022-10-16T03:04:06;15.30;;;10.13;;
11548;SDS011;61444;59.472;18.306;2022-10-16T03:06:15;12.63;;;8.80;;
11548;SDS011;61444;59.472;18.306;2022-10-16T03:08:24;15.03;;;9.90;;
11548;SDS011;61444;59.472;18.306;2022-10-16T03:10:33;13.67;;;9.70;;
11548;SDS011;61444;59.472;18.306;2022-10-16T03:12:45;15.33;;;10.27;;
11548;SDS011;61444;59.472;18.306;2022-10-16T03:14:56;12.33;;;9.37;;
11548;SDS011;61444;59.472;18.306;2022-10-16T03:17:06;14.53;;;10.37;;
11548;SDS011;61444;59.472;18.306;2022-10-16T03:19:15;14.33;;;9.63;;
11548;SDS011;61444;59.472;18.306;2022-10-16T03:21:25;16.93;;;10.30;;
11548;SDS011;61444;59.472;18.306;2022-10-16T03:23:47;13.60;;;10.20;;
11548;SDS011;61444;59.472;18.306;2022-10-16T03:25:56;13.87;;;9.93;;
11548;SDS011;61444;59.472;18.306;2022-10-16T03:28:05;12.00;;;9.50;;
11548;SDS011;61444;59.472;18.306;2022-10-16T03:30:16;17.93;;;9.53;;
11548;SDS011;61444;59.472;18.306;2022-10-16T03:32:25;13.50;;;9.73;;
11548;SDS011;61444;59.472;18.306;2022-10-16T03:34:35;12.20;;;9.30;;
11548;SDS011;61444;59.472;18.306;2022-10-16T03:36:44;15.17;;;9.40;;
11548;SDS011;61444;59.472;18.306;2022-10-16T03:38:53;13.10;;;9.67;;
11548;SDS011;61444;59.472;18.306;2022-10-16T03:41:02;12.23;;;9.03;;
11548;SDS011;61444;59.472;18.306;2022-10-16T03:43:11;12.60;;;9.10;;
11548;SDS011;61444;59.472;18.306;2022-10-16T03:45:22;11.40;;;8.90;;
11548;SDS011;61444;59.472;18.306;2022-10-16T03:47:33;11.17;;;8.60;;
11548;SDS011;61444;59.472;18.306;2022-10-16T03:49:43;11.93;;;7.77;;
11548;SDS011;61444;59.472;18.306;2022-10-16T03:51:52;11.47;;;8.60;;
11548;SDS011;61444;59.472;18.306;2022-10-16T03:54:01;11.90;;;8.20;;
11548;SDS011;61444;59.472;18.306;2022-10-16T03:56:09;11.80;;;7.70;;
11548;SDS011;61444;59.472;18.306;2022-10-16T03:58:18;11.13;;;8.60;;
11548;SDS011;61444;59.472;18.306;2022-10-16T04:00:29;9.47;;;7.97;;
11548;SDS011;61444;59.472;18.306;2022-10-16T04:02:38;9.77;;;7.57;;
11548;SDS011;61444;59.472;18.306;2022-10-16T04:04:54;12.47;;;7.90;;
11548;SDS011;61444;59.472;18.306;2022-10-16T04:07:03;9.47;;;7.40;;
11548;SDS011;61444;59.472;18.306;2022-10-16T04:09:12;11.07;;;8.63;;
11548;SDS011;61444;59.472;18.306;2022-10-16T04:11:21;11.07;;;7.93;;
11548;SDS011;61444;59.472;18.306;2022-10-16T04:13:31;9.00;;;7.00;;
11548;SDS011;61444;59.472;18.306;2022-10-16T04:15:42;8.13;;;6.77;;
11548;SDS011;61444;59.472;18.306;2022-10-16T04:17:51;11.57;;;7.77;;
11548;SDS011;61444;59.472;18.306;2022-10-16T04:20:00;11.43;;;6.70;;
11548;SDS011;61444;59.472;18.306;2022-10-16T04:22:08;10.57;;;7.20;;
11548;SDS011;61444;59.472;18.306;2022-10-16T04:24:17;11.63;;;7.20;;
11548;SDS011;61444;59.472;18.306;2022-10-16T04:26:26;8.53;;;6.90;;
11548;SDS011;61444;59.472;18.306;2022-10-16T04:28:35;11.13;;;6.97;;
11548;SDS011;61444;59.472;18.306;2022-10-16T04:30:46;10.97;;;7.50;;
11548;SDS011;61444;59.472;18.306;2022-10-16T04:32:55;9.10;;;6.47;;
11548;SDS011;61444;59.472;18.306;2022-10-16T04:35:08;8.37;;;6.37;;
11548;SDS011;61444;59.472;18.306;2022-10-16T04:37:17;8.83;;;6.27;;
11548;SDS011;61444;59.472;18.306;2022-10-16T04:39:27;9.07;;;7.07;;
11548;SDS011;61444;59.472;18.306;2022-10-16T04:41:35;8.63;;;7.10;;
11548;SDS011;61444;59.472;18.306;2022-10-16T04:43:44;7.90;;;6.10;;
11548;SDS011;61444;59.472;18.306;2022-10-16T04:45:56;7.70;;;6.20;;
11548;SDS011;61444;59.472;18.306;2022-10-16T04:48:05;9.17;;;6.53;;
11548;SDS011;61444;59.472;18.306;2022-10-16T04:50:15;8.50;;;6.80;;
11548;SDS011;61444;59.472;18.306;2022-10-16T04:52:26;7.83;;;6.03;;
11548;SDS011;61444;59.472;18.306;2022-10-16T04:54:35;7.70;;;6.20;;
11548;SDS011;61444;59.472;18.306;2022-10-16T04:56:44;7.30;;;6.03;;
11548;SDS011;61444;59.472;18.306;2022-10-16T04:58:55;8.37;;;6.50;;
11548;SDS011;61444;59.472;18.306;2022-10-16T05:01:06;8.20;;;6.13;;
11548;SDS011;61444;59.472;18.306;2022-10-16T05:03:15;8.43;;;6.00;;
11548;SDS011;61444;59.472;18.306;2022-10-16T05:05:23;8.80;;;5.73;;
11548;SDS011;61444;59.472;18.306;2022-10-16T05:07:33;7.90;;;6.33;;
11548;SDS011;61444;59.472;18.306;2022-10-16T05:09:41;8.23;;;6.30;;
11548;SDS011;61444;59.472;18.306;2022-10-16T05:11:50;7.03;;;5.93;;
11548;SDS011;61444;59.472;18.306;2022-10-16T05:14:00;8.37;;;6.50;;
11548;SDS011;61444;59.472;18.306;2022-10-16T05:16:10;9.40;;;6.03;;
11548;SDS011;61444;59.472;18.306;2022-10-16T05:18:19;7.73;;;5.80;;
11548;SDS011;61444;59.472;18.306;2022-10-16T05:20:28;8.97;;;5.70;;
11548;SDS011;61444;59.472;18.306;2022-10-16T05:22:37;7.63;;;6.03;;
11548;SDS011;61444;59.472;18.306;2022-10-16T05:24:46;7.57;;;6.17;;
11548;SDS011;61444;59.472;18.306;2022-10-16T05:26:55;8.30;;;6.20;;
11548;SDS011;61444;59.472;18.306;2022-10-16T05:29:05;9.77;;;6.47;;
11548;SDS011;61444;59.472;18.306;2022-10-16T05:31:16;10.00;;;6.10;;
11548;SDS011;61444;59.472;18.306;2022-10-16T05:33:25;11.93;;;6.20;;
11548;SDS011;61444;59.472;18.306;2022-10-16T05:35:34;9.37;;;6.10;;
11548;SDS011;61444;59.472;18.306;2022-10-16T05:37:43;9.50;;;5.60;;
11548;SDS011;61444;59.472;18.306;2022-10-16T05:39:52;6.30;;;5.57;;
11548;SDS011;61444;59.472;18.306;2022-10-16T05:42:01;7.17;;;6.00;;
11548;SDS011;61444;59.472;18.306;2022-10-16T05:44:10;9.77;;;6.43;;
11548;SDS011;61444;59.472;18.306;2022-10-16T05:46:21;6.60;;;5.90;;
11548;SDS011;61444;59.472;18.306;2022-10-16T05:48:30;7.30;;;6.20;;
11548;SDS011;61444;59.472;18.306;2022-10-16T05:50:39;8.67;;;6.07;;
11548;SDS011;61444;59.472;18.306;2022-10-16T05:52:48;9.03;;;6.23;;
11548;SDS011;61444;59.472;18.306;2022-10-16T05:54:58;7.33;;;6.13;;
11548;SDS011;61444;59.472;18.306;2022-10-16T05:57:07;10.43;;;6.20;;
11548;SDS011;61444;59.472;18.306;2022-10-16T05:59:16;9.43;;;6.33;;
11548;SDS011;61444;59.472;18.306;2022-10-16T06:01:26;8.93;;;6.63;;
11548;SDS011;61444;59.472;18.306;2022-10-16T06:03:35;6.87;;;6.13;;
11548;SDS011;61444;59.472;18.306;2022-10-16T06:05:45;9.43;;;6.27;;
11548;SDS011;61444;59.472;18.306;2022-10-16T06:07:54;7.60;;;6.50;;
11548;SDS011;61444;59.472;18.306;2022-10-16T06:10:03;9.53;;;6.83;;
11548;SDS011;61444;59.472;18.306;2022-10-16T06:12:13;14.90;;;7.10;;
11548;SDS011;61444;59.472;18.306;2022-10-16T06:14:22;9.70;;;6.10;;
11548;SDS011;61444;59.472;18.306;2022-10-16T06:16:33;9.90;;;6.50;;
11548;SDS011;61444;59.472;18.306;2022-10-16T06:18:43;9.67;;;6.43;;
11548;SDS011;61444;59.472;18.306;2022-10-16T06:20:52;9.03;;;6.63;;
11548;SDS011;61444;59.472;18.306;2022-10-16T06:23:01;10.40;;;6.93;;
11548;SDS011;61444;59.472;18.306;2022-10-16T06:25:11;9.90;;;6.90;;
11548;SDS011;61444;59.472;18.306;2022-10-16T06:27:22;10.90;;;6.90;;
11548;SDS011;61444;59.472;18.306;2022-10-16T06:29:32;10.93;;;8.07;;
11548;SDS011;61444;59.472;18.306;2022-10-16T06:31:43;12.73;;;7.20;;
11548;SDS011;61444;59.472;18.306;2022-10-16T06:33:52;10.80;;;7.33;;
11548;SDS011;61444;59.472;18.306;2022-10-16T06:36:01;10.47;;;8.17;;
11548;SDS011;61444;59.472;18.306;2022-10-16T06:38:10;10.97;;;7.83;;
11548;SDS011;61444;59.472;18.306;2022-10-16T06:40:19;12.43;;;7.97;;
11548;SDS011;61444;59.472;18.306;2022-10-16T06:42:28;12.53;;;8.30;;
11548;SDS011;61444;59.472;18.306;2022-10-16T06:44:37;14.10;;;9.00;;
11548;SDS011;61444;59.472;18.306;2022-10-16T06:46:47;14.97;;;8.97;;
11548;SDS011;61444;59.472;18.306;2022-10-16T06:48:58;12.00;;;9.40;;
11548;SDS011;61444;59.472;18.306;2022-10-16T06:51:08;18.87;;;8.93;;
11548;SDS011;61444;59.472;18.306;2022-10-16T06:53:17;10.97;;;9.47;;
11548;SDS011;61444;59.472;18.306;2022-10-16T06:55:26;12.53;;;9.13;;
11548;SDS011;61444;59.472;18.306;2022-10-16T06:57:35;13.23;;;9.37;;
11548;SDS011;61444;59.472;18.306;2022-10-16T06:59:44;13.77;;;9.23;;
11548;SDS011;61444;59.472;18.306;2022-10-16T07:01:58;16.07;;;9.20;;
11548;SDS011;61444;59.472;18.306;2022-10-16T07:04:07;11.97;;;8.73;;
11548;SDS011;61444;59.472;18.306;2022-10-16T07:06:17;12.77;;;8.70;;
11548;SDS011;61444;59.472;18.306;2022-10-16T07:08:26;11.77;;;9.00;;
11548;SDS011;61444;59.472;18.306;2022-10-16T07:10:35;11.33;;;9.00;;
11548;SDS011;61444;59.472;18.306;2022-10-16T07:12:45;14.17;;;9.07;;
11548;SDS011;61444;59.472;18.306;2022-10-16T07:14:54;13.90;;;9.20;;
11548;SDS011;61444;59.472;18.306;2022-10-16T07:17:05;13.40;;;9.80;;
11548;SDS011;61444;59.472;18.306;2022-10-16T07:19:14;13.17;;;10.00;;
11548;SDS011;61444;59.472;18.306;2022-10-16T07:21:25;12.97;;;9.73;;
11548;SDS011;61444;59.472;18.306;2022-10-16T07:23:35;15.47;;;10.13;;
11548;SDS011;61444;59.472;18.306;2022-10-16T07:25:44;16.77;;;9.90;;
11548;SDS011;61444;59.472;18.306;2022-10-16T07:27:53;13.97;;;9.70;;
11548;SDS011;61444;59.472;18.306;2022-10-16T07:30:04;14.60;;;10.20;;
11548;SDS011;61444;59.472;18.306;2022-10-16T07:32:16;15.77;;;10.27;;
11548;SDS011;61444;59.472;18.306;2022-10-16T07:34:25;14.07;;;10.13;;
11548;SDS011;61444;59.472;18.306;2022-10-16T07:36:34;13.17;;;9.80;;
11548;SDS011;61444;59.472;18.306;2022-10-16T07:38:43;13.70;;;9.67;;
11548;SDS011;61444;59.472;18.306;2022-10-16T07:40:55;12.37;;;9.57;;
11548;SDS011;61444;59.472;18.306;2022-10-16T07:43:05;14.77;;;10.10;;
11548;SDS011;61444;59.472;18.306;2022-10-16T07:45:14;16.13;;;10.27;;
11548;SDS011;61444;59.472;18.306;2022-10-16T07:47:25;16.30;;;10.03;;
11548;SDS011;61444;59.472;18.306;2022-10-16T07:49:35;17.30;;;11.43;;
11548;SDS011;61444;59.472;18.306;2022-10-16T07:51:44;15.07;;;9.73;;
11548;SDS011;61444;59.472;18.306;2022-10-16T07:53:53;14.83;;;9.80;;
11548;SDS011;61444;59.472;18.306;2022-10-16T07:56:03;14.43;;;10.33;;
11548;SDS011;61444;59.472;18.306;2022-10-16T07:58:12;17.83;;;10.77;;
11548;SDS011;61444;59.472;18.306;2022-10-16T08:00:21;12.83;;;10.10;;
11548;SDS011;61444;59.472;18.306;2022-10-16T08:02:32;12.97;;;9.23;;
11548;SDS011;61444;59.472;18.306;2022-10-16T08:04:42;15.23;;;9.30;;
11548;SDS011;61444;59.472;18.306;2022-10-16T08:06:51;11.83;;;8.67;;
11548;SDS011;61444;59.472;18.306;2022-10-16T08:09:00;11.57;;;8.97;;
11548;SDS011;61444;59.472;18.306;2022-10-16T08:11:10;10.23;;;7.80;;
11548;SDS011;61444;59.472;18.306;2022-10-16T08:13:19;13.87;;;8.30;;
11548;SDS011;61444;59.472;18.306;2022-10-16T08:15:28;14.20;;;7.80;;
11548;SDS011;61444;59.472;18.306;2022-10-16T08:17:38;12.13;;;7.80;;
11548;SDS011;61444;59.472;18.306;2022-10-16T08:19:47;7.30;;;5.87;;
11548;SDS011;61444;59.472;18.306;2022-10-16T08:21:56;7.13;;;5.20;;
11548;SDS011;61444;59.472;18.306;2022-10-16T08:24:05;8.93;;;5.40;;
11548;SDS011;61444;59.472;18.306;2022-10-16T08:26:15;6.50;;;4.83;;
11548;SDS011;61444;59.472;18.306;2022-10-16T08:28:23;6.73;;;5.47;;
11548;SDS011;61444;59.472;18.306;2022-10-16T08:30:32;8.17;;;5.27;;
11548;SDS011;61444;59.472;18.306;2022-10-16T08:32:43;6.37;;;5.40;;
11548;SDS011;61444;59.472;18.306;2022-10-16T08:34:52;5.93;;;5.17;;
11548;SDS011;61444;59.472;18.306;2022-10-16T08:37:01;9.23;;;5.50;;
11548;SDS011;61444;59.472;18.306;2022-10-16T08:39:10;6.10;;;5.30;;
11548;SDS011;61444;59.472;18.306;2022-10-16T08:41:46;7.33;;;5.40;;
11548;SDS011;61444;59.472;18.306;2022-10-16T08:44:17;9.33;;;5.03;;
11548;SDS011;61444;59.472;18.306;2022-10-16T08:46:31;5.17;;;4.67;;
11548;SDS011;61444;59.472;18.306;2022-10-16T08:48:47;6.03;;;4.10;;
11548;SDS011;61444;59.472;18.306;2022-10-16T08:51:00;6.63;;;4.87;;
11548;SDS011;61444;59.472;18.306;2022-10-16T08:53:11;5.50;;;4.30;;
11548;SDS011;61444;59.472;18.306;2022-10-16T08:55:30;6.77;;;5.07;;
11548;SDS011;61444;59.472;18.306;2022-10-16T08:57:40;7.27;;;5.17;;
11548;SDS011;61444;59.472;18.306;2022-10-16T08:59:50;8.27;;;5.07;;
11548;SDS011;61444;59.472;18.306;2022-10-16T09:02:03;6.73;;;4.50;;
11548;SDS011;61444;59.472;18.306;2022-10-16T09:06:48;5.87;;;4.40;;
11548;SDS011;61444;59.472;18.306;2022-10-16T09:09:02;8.43;;;4.17;;
11548;SDS011;61444;59.472;18.306;2022-10-16T09:11:17;4.50;;;3.60;;
11548;SDS011;61444;59.472;18.306;2022-10-16T09:13:31;5.33;;;4.13;;
11548;SDS011;61444;59.472;18.306;2022-10-16T09:15:43;4.53;;;3.67;;
11548;SDS011;61444;59.472;18.306;2022-10-16T09:17:58;5.90;;;3.37;;
11548;SDS011;61444;59.472;18.306;2022-10-16T09:20:18;4.37;;;3.50;;
11548;SDS011;61444;59.472;18.306;2022-10-16T09:22:29;4.23;;;3.60;;
11548;SDS011;61444;59.472;18.306;2022-10-16T09:24:40;3.50;;;3.20;;
11548;SDS011;61444;59.472;18.306;2022-10-16T09:26:50;5.17;;;3.40;;
11548;SDS011;61444;59.472;18.306;2022-10-16T09:28:59;7.30;;;3.83;;
11548;SDS011;61444;59.472;18.306;2022-10-16T09:31:11;5.60;;;3.97;;
11548;SDS011;61444;59.472;18.306;2022-10-16T09:33:23;4.83;;;3.60;;
11548;SDS011;61444;59.472;18.306;2022-10-16T09:35:35;5.73;;;3.90;;
11548;SDS011;61444;59.472;18.306;2022-10-16T09:37:47;5.03;;;3.77;;
11548;SDS011;61444;59.472;18.306;2022-10-16T09:39:57;5.63;;;3.60;;
11548;SDS011;61444;59.472;18.306;2022-10-16T09:42:14;3.73;;;3.33;;
11548;SDS011;61444;59.472;18.306;2022-10-16T09:44:23;4.87;;;3.33;;
11548;SDS011;61444;59.472;18.306;2022-10-16T09:46:34;5.40;;;3.30;;
11548;SDS011;61444;59.472;18.306;2022-10-16T09:48:44;4.27;;;3.87;;
11548;SDS011;61444;59.472;18.306;2022-10-16T09:50:58;4.37;;;3.53;;
11548;SDS011;61444;59.472;18.306;2022-10-16T09:53:12;5.40;;;3.30;;
11548;SDS011;61444;59.472;18.306;2022-10-16T09:55:24;7.03;;;3.13;;
11548;SDS011;61444;59.472;18.306;2022-10-16T09:57:33;6.50;;;3.30;;
11548;SDS011;61444;59.472;18.306;2022-10-16T09:59:45;6.57;;;3.27;;
11548;SDS011;61444;59.472;18.306;2022-10-16T10:01:55;6.60;;;3.20;;
11548;SDS011;61444;59.472;18.306;2022-10-16T10:04:09;4.50;;;2.77;;
11548;SDS011;61444;59.472;18.306;2022-10-16T10:06:22;5.57;;;3.10;;
11548;SDS011;61444;59.472;18.306;2022-10-16T10:08:33;5.67;;;3.00;;
11548;SDS011;61444;59.472;18.306;2022-10-16T10:10:44;5.13;;;2.80;;
11548;SDS011;61444;59.472;18.306;2022-10-16T10:12:58;3.80;;;3.40;;
11548;SDS011;61444;59.472;18.306;2022-10-16T10:15:09;5.33;;;3.13;;
11548;SDS011;61444;59.472;18.306;2022-10-16T10:17:20;8.13;;;2.93;;
11548;SDS011;61444;59.472;18.306;2022-10-16T10:19:29;7.80;;;2.80;;
11548;SDS011;61444;59.472;18.306;2022-10-16T10:21:41;5.53;;;2.90;;
11548;SDS011;61444;59.472;18.306;2022-10-16T10:23:56;3.30;;;2.83;;
11548;SDS011;61444;59.472;18.306;2022-10-16T10:26:06;5.60;;;2.63;;
11548;SDS011;61444;59.472;18.306;2022-10-16T10:28:26;5.00;;;2.53;;
11548;SDS011;61444;59.472;18.306;2022-10-16T10:30:37;4.97;;;2.70;;
11548;SDS011;61444;59.472;18.306;2022-10-16T10:32:53;10.83;;;3.13;;
11548;SDS011;61444;59.472;18.306;2022-10-16T10:35:12;3.90;;;2.77;;
11548;SDS011;61444;59.472;18.306;2022-10-16T10:37:26;3.50;;;2.50;;
11548;SDS011;61444;59.472;18.306;2022-10-16T10:39:40;5.83;;;2.70;;
11548;SDS011;61444;59.472;18.306;2022-10-16T10:41:57;7.93;;;2.77;;
11548;SDS011;61444;59.472;18.306;2022-10-16T10:44:14;4.73;;;3.10;;
11548;SDS011;61444;59.472;18.306;2022-10-16T10:46:26;5.13;;;3.27;;
11548;SDS011;61444;59.472;18.306;2022-10-16T10:48:51;4.50;;;2.80;;
11548;SDS011;61444;59.472;18.306;2022-10-16T10:51:04;5.63;;;2.63;;
11548;SDS011;61444;59.472;18.306;2022-10-16T10:53:19;4.23;;;2.53;;
11548;SDS011;61444;59.472;18.306;2022-10-16T10:55:36;6.23;;;2.63;;
11548;SDS011;61444;59.472;18.306;2022-10-16T10:57:52;5.23;;;2.90;;
11548;SDS011;61444;59.472;18.306;2022-10-16T11:00:06;4.87;;;2.63;;
11548;SDS011;61444;59.472;18.306;2022-10-16T11:02:22;4.67;;;3.17;;
11548;SDS011;61444;59.472;18.306;2022-10-16T11:04:54;5.43;;;2.97;;
11548;SDS011;61444;59.472;18.306;2022-10-16T11:07:09;3.83;;;2.60;;
11548;SDS011;61444;59.472;18.306;2022-10-16T11:09:21;2.80;;;2.40;;
11548;SDS011;61444;59.472;18.306;2022-10-16T11:11:35;4.77;;;3.27;;
11548;SDS011;61444;59.472;18.306;2022-10-16T11:13:49;9.40;;;3.43;;
11548;SDS011;61444;59.472;18.306;2022-10-16T11:16:02;7.13;;;2.80;;
11548;SDS011;61444;59.472;18.306;2022-10-16T11:18:13;4.47;;;2.80;;
11548;SDS011;61444;59.472;18.306;2022-10-16T11:20:25;3.23;;;2.60;;
11548;SDS011;61444;59.472;18.306;2022-10-16T11:22:36;4.13;;;3.10;;
11548;SDS011;61444;59.472;18.306;2022-10-16T11:24:45;5.00;;;3.07;;
11548;SDS011;61444;59.472;18.306;2022-10-16T11:26:59;6.43;;;2.73;;
11548;SDS011;61444;59.472;18.306;2022-10-16T11:29:13;3.67;;;2.73;;
11548;SDS011;61444;59.472;18.306;2022-10-16T11:31:28;4.47;;;2.77;;
11548;SDS011;61444;59.472;18.306;2022-10-16T11:33:39;4.73;;;2.60;;
11548;SDS011;61444;59.472;18.306;2022-10-16T11:35:51;6.07;;;2.33;;
11548;SDS011;61444;59.472;18.306;2022-10-16T11:38:02;4.03;;;2.07;;
11548;SDS011;61444;59.472;18.306;2022-10-16T11:40:16;4.30;;;2.40;;
11548;SDS011;61444;59.472;18.306;2022-10-16T11:42:32;3.93;;;2.60;;
11548;SDS011;61444;59.472;18.306;2022-10-16T11:44:49;6.70;;;2.50;;
11548;SDS011;61444;59.472;18.306;2022-10-16T11:47:03;4.87;;;2.40;;
11548;SDS011;61444;59.472;18.306;2022-10-16T11:49:36;4.70;;;2.13;;
11548;SDS011;61444;59.472;18.306;2022-10-16T11:51:48;4.90;;;2.60;;
11548;SDS011;61444;59.472;18.306;2022-10-16T11:54:00;6.33;;;2.50;;
11548;SDS011;61444;59.472;18.306;2022-10-16T11:56:11;9.13;;;2.77;;
11548;SDS011;61444;59.472;18.306;2022-10-16T11:58:24;5.30;;;2.40;;
11548;SDS011;61444;59.472;18.306;2022-10-16T12:00:36;4.27;;;2.60;;
11548;SDS011;61444;59.472;18.306;2022-10-16T12:02:49;7.17;;;2.50;;
11548;SDS011;61444;59.472;18.306;2022-10-16T12:05:02;5.93;;;2.53;;
11548;SDS011;61444;59.472;18.306;2022-10-16T12:07:13;6.57;;;2.77;;
11548;SDS011;61444;59.472;18.306;2022-10-16T12:09:24;6.30;;;3.13;;
11548;SDS011;61444;59.472;18.306;2022-10-16T12:11:35;5.40;;;2.47;;
11548;SDS011;61444;59.472;18.306;2022-10-16T12:13:47;6.60;;;2.73;;
11548;SDS011;61444;59.472;18.306;2022-10-16T12:16:03;4.03;;;2.37;;
11548;SDS011;61444;59.472;18.306;2022-10-16T12:18:20;2.90;;;2.43;;
11548;SDS011;61444;59.472;18.306;2022-10-16T12:20:30;3.73;;;2.40;;
11548;SDS011;61444;59.472;18.306;2022-10-16T12:22:41;3.30;;;2.40;;
11548;SDS011;61444;59.472;18.306;2022-10-16T12:24:50;3.83;;;2.60;;
11548;SDS011;61444;59.472;18.306;2022-10-16T12:27:02;3.60;;;2.40;;
11548;SDS011;61444;59.472;18.306;2022-10-16T12:29:17;5.37;;;2.50;;
11548;SDS011;61444;59.472;18.306;2022-10-16T12:31:35;5.87;;;2.33;;
11548;SDS011;61444;59.472;18.306;2022-10-16T12:34:02;3.93;;;2.20;;
11548;SDS011;61444;59.472;18.306;2022-10-16T12:36:13;7.77;;;2.77;;
11548;SDS011;61444;59.472;18.306;2022-10-16T12:38:29;6.30;;;2.50;;
11548;SDS011;61444;59.472;18.306;2022-10-16T12:40:40;4.93;;;2.67;;
11548;SDS011;61444;59.472;18.306;2022-10-16T12:42:50;3.33;;;2.40;;
11548;SDS011;61444;59.472;18.306;2022-10-16T12:45:01;5.83;;;2.50;;
11548;SDS011;61444;59.472;18.306;2022-10-16T12:47:18;5.33;;;2.70;;
11548;SDS011;61444;59.472;18.306;2022-10-16T12:49:31;3.87;;;3.37;;
11548;SDS011;61444;59.472;18.306;2022-10-16T12:51:41;5.03;;;3.33;;
11548;SDS011;61444;59.472;18.306;2022-10-16T12:54:00;6.27;;;2.80;;
11548;SDS011;61444;59.472;18.306;2022-10-16T12:56:10;4.33;;;2.47;;